createdAt,value
2019-05-26T00:02:26.916Z,12.10
2019-05-26T00:04:58.109Z,13.33
2019-05-26T00:07:30.848Z,14.57
2019-05-26T00:10:02.453Z,12.00
2019-05-26T00:12:33.857Z,12.07
2019-05-26T00:15:05.565Z,11.90
2019-05-26T00:17:37.819Z,12.00
2019-05-26T00:20:09.577Z,11.07
2019-05-26T00:22:40.691Z,11.63
2019-05-26T00:25:12.327Z,11.80
2019-05-26T00:27:43.549Z,10.87
2019-05-26T00:30:16.692Z,11.73
2019-05-26T00:32:47.846Z,12.03
2019-05-26T00:35:19.075Z,10.90
2019-05-26T00:37:50.975Z,12.10
2019-05-26T00:40:22.507Z,11.40
2019-05-26T00:42:53.794Z,10.53
2019-05-26T00:45:25.546Z,11.00
2019-05-26T00:47:56.787Z,11.50
2019-05-26T00:50:27.966Z,11.33
2019-05-26T00:52:59.161Z,10.60
2019-05-26T00:55:30.365Z,10.33
2019-05-26T00:58:01.824Z,11.10
2019-05-26T01:00:43.567Z,10.63
2019-05-26T01:03:15.076Z,9.87
2019-05-26T01:05:46.542Z,10.00
2019-05-26T01:08:17.743Z,9.60
2019-05-26T01:10:48.925Z,10.37
2019-05-26T01:13:20.108Z,9.63
2019-05-26T01:15:51.194Z,9.83
2019-05-26T01:18:22.425Z,10.07
2019-05-26T01:20:53.677Z,9.77
2019-05-26T01:23:24.876Z,8.90
2019-05-26T01:25:56.192Z,8.90
2019-05-26T01:28:27.279Z,8.67
2019-05-26T01:30:58.478Z,8.17
2019-05-26T01:33:29.727Z,8.00
2019-05-26T01:36:01.094Z,7.80
2019-05-26T01:38:33.379Z,8.03
2019-05-26T01:41:04.507Z,6.63
2019-05-26T01:43:35.722Z,7.63
2019-05-26T01:46:07.764Z,8.67
2019-05-26T01:48:39.001Z,8.20
2019-05-26T01:51:10.148Z,8.37
2019-05-26T01:53:41.518Z,9.17
2019-05-26T01:56:12.621Z,8.30
2019-05-26T01:58:43.732Z,8.00
2019-05-26T02:01:14.947Z,7.37
2019-05-26T02:03:46.144Z,7.03
2019-05-26T02:06:17.154Z,6.57
2019-05-26T02:08:48.369Z,7.00
2019-05-26T02:11:19.483Z,7.63
2019-05-26T02:13:50.715Z,6.97
2019-05-26T02:16:22.048Z,6.40
2019-05-26T02:18:53.273Z,6.93
2019-05-26T02:21:24.398Z,6.90
2019-05-26T02:23:55.529Z,7.20
2019-05-26T02:26:26.747Z,6.40
2019-05-26T02:28:57.780Z,6.30
2019-05-26T02:31:28.802Z,6.30
2019-05-26T02:33:59.855Z,8.17
2019-05-26T02:36:31.071Z,6.80
2019-05-26T02:39:03.607Z,6.67
2019-05-26T02:41:34.721Z,6.20
2019-05-26T02:44:06.237Z,5.63
2019-05-26T02:46:37.419Z,6.67
2019-05-26T02:49:08.651Z,6.70
2019-05-26T02:51:39.839Z,6.70
2019-05-26T02:54:11.028Z,6.77
2019-05-26T02:56:42.331Z,6.67
2019-05-26T02:59:13.536Z,6.63
2019-05-26T03:02:02.115Z,7.37
2019-05-26T03:04:17.911Z,5.93
2019-05-26T03:06:50.691Z,6.17
2019-05-26T03:09:24.054Z,5.90
2019-05-26T03:11:57.539Z,5.30
2019-05-26T03:14:32.020Z,4.30
2019-05-26T03:17:04.080Z,4.90
2019-05-26T03:19:36.309Z,4.30
2019-05-26T03:22:07.517Z,4.90
2019-05-26T03:24:42.136Z,4.27
2019-05-26T03:27:13.253Z,3.93
2019-05-26T03:29:44.302Z,4.47
2019-05-26T03:32:15.346Z,4.37
2019-05-26T03:34:46.751Z,3.80
2019-05-26T03:37:17.816Z,4.40
2019-05-26T03:39:48.882Z,4.33
2019-05-26T03:42:20.291Z,4.57
2019-05-26T03:44:51.615Z,3.30
2019-05-26T03:47:22.775Z,3.60
2019-05-26T03:49:53.984Z,4.30
2019-05-26T03:52:25.120Z,3.80
2019-05-26T03:54:56.429Z,3.63
2019-05-26T03:57:27.461Z,3.80
2019-05-26T03:59:58.681Z,4.07
2019-05-26T04:02:29.823Z,4.13
2019-05-26T04:05:00.902Z,3.30
2019-05-26T04:07:31.960Z,3.50
2019-05-26T04:10:05.875Z,3.83
2019-05-26T04:12:35.897Z,3.50
2019-05-26T04:15:07.311Z,3.97
2019-05-26T04:17:38.529Z,3.80
2019-05-26T04:20:10.056Z,3.40
2019-05-26T04:22:41.317Z,3.33
2019-05-26T04:25:13.034Z,3.30
2019-05-26T04:27:44.184Z,4.10
2019-05-26T04:30:15.515Z,3.43
2019-05-26T04:32:46.627Z,3.47
2019-05-26T04:35:17.891Z,3.90
2019-05-26T04:37:48.914Z,3.97
2019-05-26T04:40:26.948Z,3.90
2019-05-26T04:42:53.100Z,3.20
2019-05-26T04:45:24.308Z,3.60
2019-05-26T04:47:55.714Z,3.40
2019-05-26T04:50:27.031Z,3.63
2019-05-26T04:53:06.295Z,3.50
2019-05-26T04:55:31.072Z,4.00
2019-05-26T04:58:02.327Z,3.53
2019-05-26T05:00:33.758Z,3.63
2019-05-26T05:03:05.203Z,3.60
2019-05-26T05:05:36.380Z,3.20
2019-05-26T05:08:07.876Z,3.13
2019-05-26T05:10:42.650Z,3.33
2019-05-26T05:13:12.276Z,3.30
2019-05-26T05:15:43.571Z,3.37
2019-05-26T05:18:14.701Z,3.00
2019-05-26T05:20:45.885Z,2.73
2019-05-26T05:23:17.174Z,4.53
2019-05-26T05:25:48.416Z,3.60
2019-05-26T05:28:19.673Z,2.80
2019-05-26T05:30:50.931Z,2.80
2019-05-26T05:33:22.159Z,3.30
2019-05-26T05:35:53.355Z,2.63
2019-05-26T05:38:24.758Z,2.80
2019-05-26T05:41:00.010Z,3.10
2019-05-26T05:43:28.973Z,2.90
2019-05-26T05:46:00.218Z,3.50
2019-05-26T05:48:31.532Z,2.97
2019-05-26T05:51:02.694Z,3.03
2019-05-26T05:53:33.815Z,2.80
2019-05-26T05:56:05.639Z,3.70
2019-05-26T05:58:36.834Z,3.50
2019-05-26T06:01:08.182Z,3.17
2019-05-26T06:03:39.343Z,2.80
2019-05-26T06:06:10.818Z,2.23
2019-05-26T06:08:42.125Z,2.30
2019-05-26T06:11:16.981Z,2.73
2019-05-26T06:13:46.219Z,2.23
2019-05-26T06:16:17.435Z,2.40
2019-05-26T06:18:48.997Z,2.23
2019-05-26T06:21:20.249Z,2.80
2019-05-26T06:23:51.536Z,2.60
2019-05-26T06:26:23.798Z,3.57
2019-05-26T06:28:54.856Z,3.20
2019-05-26T06:31:25.993Z,3.10
2019-05-26T06:33:57.067Z,3.17
2019-05-26T06:36:28.231Z,2.43
2019-05-26T06:38:59.330Z,2.57
2019-05-26T06:41:33.846Z,2.40
2019-05-26T06:44:03.456Z,2.47
2019-05-26T06:46:34.819Z,3.13
2019-05-26T06:49:06.064Z,3.60
2019-05-26T06:51:37.279Z,4.47
2019-05-26T06:54:09.677Z,5.80
2019-05-26T06:56:40.925Z,3.80
2019-05-26T06:59:12.174Z,4.00
2019-05-26T07:01:43.265Z,4.23
2019-05-26T07:04:14.891Z,4.50
2019-05-26T07:06:46.071Z,4.37
2019-05-26T07:09:17.142Z,5.37
2019-05-26T07:11:55.901Z,6.40
2019-05-26T07:14:22.398Z,7.30
2019-05-26T07:16:53.594Z,7.60
2019-05-26T07:19:24.800Z,7.90
2019-05-26T07:21:56.285Z,6.20
2019-05-26T07:24:29.476Z,6.50
2019-05-26T07:27:00.452Z,6.33
2019-05-26T07:29:32.650Z,7.07
2019-05-26T07:32:05.746Z,6.70
2019-05-26T07:34:36.799Z,6.87
2019-05-26T07:37:09.198Z,7.50
2019-05-26T07:39:40.304Z,7.17
2019-05-26T07:42:11.666Z,6.87
2019-05-26T07:44:43.199Z,6.57
2019-05-26T07:47:14.446Z,7.30
2019-05-26T07:49:45.601Z,7.23
2019-05-26T07:52:16.679Z,7.03
2019-05-26T07:54:47.786Z,7.13
2019-05-26T07:57:18.947Z,6.20
2019-05-26T07:59:50.016Z,6.40
2019-05-26T08:02:21.313Z,6.20
2019-05-26T08:04:52.507Z,5.87
2019-05-26T08:07:23.796Z,5.97
2019-05-26T08:09:55.047Z,6.33
2019-05-26T08:12:30.427Z,6.90
2019-05-26T08:14:59.948Z,5.70
2019-05-26T08:17:31.454Z,6.10
2019-05-26T08:20:02.749Z,6.40
2019-05-26T08:22:34.041Z,6.10
2019-05-26T08:25:05.571Z,5.00
2019-05-26T08:27:36.995Z,6.63
2019-05-26T08:30:09.417Z,5.87
2019-05-26T08:32:40.988Z,6.83
2019-05-26T08:35:12.995Z,4.87
2019-05-26T08:37:44.718Z,4.90
2019-05-26T08:40:19.466Z,4.80
2019-05-26T08:42:52.405Z,4.77
2019-05-26T08:45:24.473Z,4.33
2019-05-26T08:47:55.664Z,5.60
2019-05-26T08:50:27.107Z,5.43
2019-05-26T08:52:58.105Z,4.50
2019-05-26T08:55:29.331Z,4.60
2019-05-26T08:58:00.474Z,4.80
2019-05-26T09:00:31.600Z,4.90
2019-05-26T09:03:02.819Z,3.67
2019-05-26T09:05:33.973Z,4.13
2019-05-26T09:08:07.936Z,4.40
2019-05-26T09:10:38.037Z,4.80
2019-05-26T09:13:09.165Z,3.90
2019-05-26T09:15:41.109Z,3.77
2019-05-26T09:18:12.226Z,3.60
2019-05-26T09:20:43.429Z,3.90
2019-05-26T09:23:14.938Z,4.37
2019-05-26T09:25:46.774Z,4.30
2019-05-26T09:28:18.078Z,2.97
2019-05-26T09:30:49.346Z,3.80
2019-05-26T09:33:20.498Z,3.80
2019-05-26T09:35:51.768Z,3.50
2019-05-26T09:38:23.211Z,3.40
2019-05-26T09:40:54.326Z,3.10
2019-05-26T09:43:25.606Z,3.30
2019-05-26T09:45:56.809Z,3.23
2019-05-26T09:48:28.059Z,3.00
2019-05-26T09:50:59.196Z,2.93
2019-05-26T09:53:30.384Z,3.43
2019-05-26T09:56:01.624Z,2.90
2019-05-26T09:58:34.044Z,2.53
2019-05-26T10:01:05.639Z,2.73
2019-05-26T10:03:36.979Z,2.90
2019-05-26T10:06:08.199Z,3.00
2019-05-26T10:08:39.365Z,3.07
2019-05-26T10:11:10.539Z,3.03
2019-05-26T10:13:41.683Z,2.93
2019-05-26T10:16:12.849Z,3.10
2019-05-26T10:18:44.416Z,3.17
2019-05-26T10:21:15.640Z,2.87
2019-05-26T10:23:46.748Z,3.07
2019-05-26T10:26:17.819Z,2.53
2019-05-26T10:28:48.951Z,3.17
2019-05-26T10:31:20.222Z,2.90
2019-05-26T10:33:51.359Z,2.70
2019-05-26T10:36:22.761Z,2.90
2019-05-26T10:38:54.381Z,2.77
2019-05-26T10:41:25.632Z,2.50
2019-05-26T10:43:56.876Z,2.30
2019-05-26T10:46:28.127Z,2.57
2019-05-26T10:48:59.204Z,2.73
2019-05-26T10:51:30.307Z,1.93
2019-05-26T10:54:01.454Z,2.50
2019-05-26T10:56:32.625Z,1.80
2019-05-26T10:59:04.094Z,1.47
2019-05-26T11:01:36.360Z,1.50
2019-05-26T11:04:07.867Z,2.10
2019-05-26T11:06:39.124Z,2.00
2019-05-26T11:09:10.445Z,2.17
2019-05-26T11:11:41.965Z,2.73
2019-05-26T11:14:13.046Z,2.23
2019-05-26T11:16:44.125Z,2.40
2019-05-26T11:19:15.393Z,2.00
2019-05-26T11:21:46.707Z,2.40
2019-05-26T11:24:17.858Z,3.30
2019-05-26T11:26:49.472Z,2.97
2019-05-26T11:29:21.650Z,2.70
2019-05-26T11:31:52.918Z,3.13
2019-05-26T11:34:24.124Z,2.90
2019-05-26T11:36:55.295Z,2.80
2019-05-26T11:39:26.633Z,2.47
2019-05-26T11:42:12.345Z,3.40
2019-05-26T11:44:30.646Z,2.40
2019-05-26T11:47:01.914Z,2.67
2019-05-26T11:49:33.008Z,3.03
2019-05-26T11:52:04.278Z,3.10
2019-05-26T11:54:35.499Z,2.70
2019-05-26T11:57:06.856Z,2.40
2019-05-26T11:59:38.083Z,3.90
2019-05-26T12:02:10.527Z,3.27
2019-05-26T12:04:41.692Z,3.20
2019-05-26T12:07:12.955Z,2.90
2019-05-26T12:09:44.082Z,3.20
2019-05-26T12:12:15.309Z,3.00
2019-05-26T12:14:46.474Z,3.20
2019-05-26T12:17:17.637Z,3.43
2019-05-26T12:19:48.743Z,3.23
2019-05-26T12:22:19.880Z,3.57
2019-05-26T12:24:51.400Z,3.30
2019-05-26T12:27:22.566Z,3.43
2019-05-26T12:29:53.734Z,2.97
2019-05-26T12:32:24.806Z,3.50
2019-05-26T12:34:56.057Z,3.40
2019-05-26T12:37:27.200Z,3.30
2019-05-26T12:39:58.290Z,3.07
2019-05-26T12:42:29.628Z,3.40
2019-05-26T12:45:00.956Z,3.13
2019-05-26T12:47:32.178Z,3.50
2019-05-26T12:50:03.528Z,2.77
2019-05-26T12:52:34.740Z,3.00
2019-05-26T12:55:09.397Z,3.20
2019-05-26T12:57:40.686Z,3.20
2019-05-26T13:00:13.906Z,2.97
2019-05-26T13:02:44.991Z,2.97
2019-05-26T13:05:17.694Z,2.83
2019-05-26T13:07:48.830Z,2.93
2019-05-26T13:10:20.295Z,2.60
2019-05-26T13:12:51.413Z,3.07
2019-05-26T13:15:23.237Z,3.43
2019-05-26T13:17:54.484Z,2.50
2019-05-26T13:20:26.842Z,2.90
2019-05-26T13:22:57.981Z,2.60
2019-05-26T13:25:29.259Z,2.87
2019-05-26T13:28:00.344Z,2.87
2019-05-26T13:30:32.482Z,2.93
2019-05-26T13:33:03.729Z,3.87
2019-05-26T13:35:34.886Z,3.00
2019-05-26T13:38:06.541Z,3.30
2019-05-26T13:40:37.758Z,2.93
2019-05-26T13:43:08.932Z,2.80
2019-05-26T13:45:40.477Z,3.13
2019-05-26T13:48:11.852Z,3.67
2019-05-26T13:50:43.083Z,3.10
2019-05-26T13:53:14.301Z,3.20
2019-05-26T13:55:45.581Z,2.87
2019-05-26T13:58:16.892Z,3.00
2019-05-26T14:00:48.240Z,3.43
2019-05-26T14:03:19.466Z,3.20
2019-05-26T14:05:50.761Z,3.20
2019-05-26T14:08:21.950Z,3.07
2019-05-26T14:10:53.343Z,3.17
2019-05-26T14:13:25.469Z,2.93
2019-05-26T14:15:58.201Z,3.07
2019-05-26T14:18:31.690Z,3.10
2019-05-26T14:21:03.096Z,3.37
2019-05-26T14:23:34.299Z,3.37
2019-05-26T14:26:05.545Z,3.40
2019-05-26T14:28:46.726Z,2.70
2019-05-26T14:31:17.988Z,2.90
2019-05-26T14:33:49.252Z,3.10
2019-05-26T14:36:20.479Z,2.90
2019-05-26T14:38:51.689Z,3.50
2019-05-26T14:41:23.047Z,3.27
2019-05-26T14:43:54.326Z,2.80
2019-05-26T14:46:25.722Z,2.90
2019-05-26T14:48:56.806Z,3.13
2019-05-26T14:51:27.928Z,3.50
2019-05-26T14:53:59.258Z,3.23
2019-05-26T14:56:30.564Z,3.20
2019-05-26T14:59:01.633Z,2.73
2019-05-26T15:01:32.897Z,2.53
2019-05-26T15:04:04.041Z,2.73
2019-05-26T15:06:35.226Z,2.77
2019-05-26T15:09:22.367Z,3.57
2019-05-26T15:11:41.318Z,3.17
2019-05-26T15:14:12.532Z,3.23
2019-05-26T15:16:43.672Z,3.10
2019-05-26T15:19:14.910Z,2.80
2019-05-26T15:21:46.141Z,2.83
2019-05-26T15:24:17.446Z,2.77
2019-05-26T15:26:48.540Z,2.50
2019-05-26T15:29:19.743Z,2.83
2019-05-26T15:31:50.992Z,2.50
2019-05-26T15:34:22.361Z,2.40
2019-05-26T15:36:53.637Z,2.03
2019-05-26T15:39:24.934Z,2.27
2019-05-26T15:41:56.100Z,2.90
2019-05-26T15:44:27.416Z,3.10
2019-05-26T15:46:58.690Z,2.90
2019-05-26T15:49:29.927Z,2.57
2019-05-26T15:52:01.223Z,2.60
2019-05-26T15:54:32.489Z,2.33
2019-05-26T15:57:03.850Z,2.60
2019-05-26T15:59:35.078Z,2.63
2019-05-26T16:02:06.427Z,2.70
2019-05-26T16:04:37.716Z,2.40
2019-05-26T16:07:09.077Z,2.50
2019-05-26T16:09:40.296Z,2.63
2019-05-26T16:12:11.610Z,2.40
2019-05-26T16:14:42.867Z,1.73
2019-05-26T16:17:14.285Z,2.00
2019-05-26T16:19:45.455Z,2.20
2019-05-26T16:22:16.766Z,2.10
2019-05-26T16:24:48.095Z,2.10
2019-05-26T16:27:20.002Z,2.37
2019-05-26T16:29:51.327Z,2.10
2019-05-26T16:32:22.711Z,2.43
2019-05-26T16:34:53.888Z,2.23
2019-05-26T16:37:25.159Z,2.63
2019-05-26T16:39:56.365Z,2.70
2019-05-26T16:42:27.681Z,2.50
2019-05-26T16:44:58.841Z,2.47
2019-05-26T16:47:30.202Z,2.37
2019-05-26T16:50:01.466Z,2.50
2019-05-26T16:52:32.697Z,2.67
2019-05-26T16:55:04.246Z,3.93
2019-05-26T16:57:35.535Z,2.43
2019-05-26T17:00:07.646Z,2.60
2019-05-26T17:02:39.153Z,2.50
2019-05-26T17:05:10.477Z,2.90
2019-05-26T17:07:41.592Z,2.63
2019-05-26T17:10:13.177Z,2.83
2019-05-26T17:12:44.260Z,3.10
2019-05-26T17:15:15.851Z,2.80
2019-05-26T17:17:47.213Z,3.07
2019-05-26T17:20:18.919Z,2.50
2019-05-26T17:22:50.315Z,3.03
2019-05-26T17:25:21.568Z,3.17
2019-05-26T17:27:52.779Z,3.67
2019-05-26T17:30:24.315Z,2.97
2019-05-26T17:32:55.560Z,3.03
2019-05-26T17:35:26.815Z,3.30
2019-05-26T17:37:58.469Z,2.90
2019-05-26T17:40:29.709Z,3.67
2019-05-26T17:43:01.040Z,3.67
2019-05-26T17:45:32.350Z,3.00
2019-05-26T17:48:03.646Z,3.00
2019-05-26T17:50:34.944Z,3.30
2019-05-26T17:53:06.241Z,3.87
2019-05-26T17:55:38.078Z,2.90
2019-05-26T17:58:09.251Z,3.80
2019-05-26T18:00:40.428Z,3.30
2019-05-26T18:03:11.673Z,3.60
2019-05-26T18:05:42.943Z,3.50
2019-05-26T18:08:14.502Z,3.43
2019-05-26T18:10:45.863Z,3.80
2019-05-26T18:13:17.244Z,3.80
2019-05-26T18:15:48.596Z,4.27
2019-05-26T18:18:21.027Z,4.07
2019-05-26T18:20:52.216Z,2.87
2019-05-26T18:23:23.468Z,2.60
2019-05-26T18:25:54.748Z,2.77
2019-05-26T18:28:26.006Z,2.80
2019-05-26T18:30:57.279Z,2.70
2019-05-26T18:33:28.727Z,2.97
2019-05-26T18:35:59.994Z,3.17
2019-05-26T18:38:31.339Z,3.43
2019-05-26T18:41:02.610Z,2.90
2019-05-26T18:43:33.931Z,3.53
2019-05-26T18:46:05.169Z,2.80
2019-05-26T18:48:36.532Z,3.20
2019-05-26T18:51:07.804Z,3.00
2019-05-26T18:53:39.107Z,3.73
2019-05-26T18:56:10.413Z,3.43
2019-05-26T18:58:41.785Z,5.40
2019-05-26T19:01:15.487Z,5.43
2019-05-26T19:03:46.832Z,5.80
2019-05-26T19:06:18.091Z,5.00
2019-05-26T19:08:49.274Z,5.27
2019-05-26T19:11:20.600Z,5.00
2019-05-26T19:13:51.937Z,4.57
2019-05-26T19:16:23.099Z,4.60
2019-05-26T19:18:54.383Z,4.43
2019-05-26T19:21:25.711Z,4.60
2019-05-26T19:23:56.980Z,5.00
2019-05-26T19:26:28.250Z,5.77
2019-05-26T19:28:59.617Z,5.30
2019-05-26T19:31:30.817Z,5.70
2019-05-26T19:34:02.029Z,5.00
2019-05-26T19:36:33.287Z,4.63
2019-05-26T19:39:06.016Z,5.10
2019-05-26T19:41:39.225Z,5.27
2019-05-26T19:44:11.384Z,4.97
2019-05-26T19:46:42.577Z,5.60
2019-05-26T19:49:13.800Z,5.40
2019-05-26T19:51:45.045Z,5.03
2019-05-26T19:54:16.281Z,4.93
2019-05-26T19:56:47.506Z,4.73
2019-05-26T19:59:19.003Z,5.00
2019-05-26T20:01:50.225Z,5.77
2019-05-26T20:04:22.511Z,4.73
2019-05-26T20:06:53.863Z,5.53
2019-05-26T20:09:25.237Z,5.83
2019-05-26T20:11:56.482Z,5.90
2019-05-26T20:14:28.838Z,6.00
2019-05-26T20:17:00.254Z,6.53
2019-05-26T20:19:31.382Z,6.50
2019-05-26T20:22:03.811Z,6.87
2019-05-26T20:24:34.980Z,6.30
2019-05-26T20:27:06.315Z,6.07
2019-05-26T20:29:37.605Z,6.03
2019-05-26T20:32:10.191Z,6.40
2019-05-26T20:34:41.440Z,5.90
2019-05-26T20:37:13.855Z,6.10
2019-05-26T20:39:45.188Z,6.37
2019-05-26T20:42:16.350Z,6.47
2019-05-26T20:44:47.608Z,6.30
2019-05-26T20:47:18.780Z,6.20
2019-05-26T20:49:50.517Z,6.10
2019-05-26T20:52:21.832Z,6.60
2019-05-26T20:54:53.316Z,6.07
2019-05-26T20:57:24.601Z,5.83
2019-05-26T20:59:56.060Z,5.17
2019-05-26T21:02:27.363Z,6.10
2019-05-26T21:04:58.797Z,5.97
2019-05-26T21:07:30.569Z,5.87
2019-05-26T21:10:01.904Z,5.50
2019-05-26T21:12:33.360Z,6.33
2019-05-26T21:15:05.716Z,6.63
2019-05-26T21:17:37.135Z,7.77
2019-05-26T21:20:08.829Z,7.73
2019-05-26T21:22:40.086Z,7.60
2019-05-26T21:25:22.805Z,7.50
2019-05-26T21:27:54.219Z,6.80
2019-05-26T21:30:25.439Z,7.80
2019-05-26T21:32:56.679Z,7.33
2019-05-26T21:35:27.883Z,6.27
2019-05-26T21:37:58.987Z,7.43
2019-05-26T21:40:30.302Z,6.83
2019-05-26T21:43:01.789Z,7.10
2019-05-26T21:45:33.111Z,7.20
2019-05-26T21:48:04.488Z,7.77
2019-05-26T21:50:36.065Z,7.67
2019-05-26T21:53:10.349Z,7.60
2019-05-26T21:55:42.650Z,7.57
2019-05-26T21:58:13.779Z,7.10
2019-05-26T22:00:48.241Z,7.03
2019-05-26T22:03:20.603Z,7.13
2019-05-26T22:05:51.875Z,7.17
2019-05-26T22:08:22.985Z,7.00
2019-05-26T22:10:54.313Z,7.10
2019-05-26T22:13:25.579Z,6.80
2019-05-26T22:15:56.813Z,7.50
2019-05-26T22:18:27.960Z,7.00
2019-05-26T22:20:59.235Z,6.17
2019-05-26T22:23:30.488Z,6.40
2019-05-26T22:26:01.801Z,6.73
2019-05-26T22:28:32.956Z,7.50
2019-05-26T22:31:05.387Z,6.97
2019-05-26T22:33:36.571Z,5.80
2019-05-26T22:36:08.866Z,6.80
2019-05-26T22:38:40.197Z,6.70
2019-05-26T22:41:11.479Z,6.87
2019-05-26T22:43:42.670Z,6.80
2019-05-26T22:46:13.850Z,5.83
2019-05-26T22:48:45.077Z,6.30
2019-05-26T22:51:16.263Z,6.60
2019-05-26T22:53:47.512Z,5.80
2019-05-26T22:56:18.874Z,6.73
2019-05-26T22:58:49.997Z,6.60
2019-05-26T23:01:21.268Z,6.83
2019-05-26T23:03:52.555Z,6.60
2019-05-26T23:06:23.833Z,6.57
2019-05-26T23:08:55.069Z,6.20
2019-05-26T23:11:26.271Z,6.63
2019-05-26T23:13:57.470Z,6.57
2019-05-26T23:16:28.726Z,6.57
2019-05-26T23:18:59.940Z,6.30
2019-05-26T23:21:31.126Z,5.90
2019-05-26T23:24:02.404Z,6.33
2019-05-26T23:26:33.742Z,6.30
2019-05-26T23:29:05.043Z,6.03
2019-05-26T23:31:36.232Z,6.90
2019-05-26T23:34:07.453Z,6.40
2019-05-26T23:36:38.703Z,6.33
2019-05-26T23:39:10.059Z,7.07
2019-05-26T23:41:41.217Z,7.20
2019-05-26T23:44:12.591Z,7.67
2019-05-26T23:46:43.851Z,6.17
2019-05-26T23:49:14.990Z,6.53
2019-05-26T23:51:46.152Z,6.43
2019-05-26T23:54:17.379Z,7.30
2019-05-26T23:56:48.811Z,6.70
2019-05-26T23:59:19.971Z,6.87
